Terminal Aerodrome Forecast
Issued by NWS

Home | Current Version | Previous Version | Text Only | Print | Product List | Glossary On
Versions: 1 2 3 4 5 6 7 8 9 10 11 12 13 14 15 16 17 18 19
984
FTUS43 KGRR 301748
TAFLAN
TAF
KLAN 301748Z 3018/0118 08008KT P6SM VCSH OVC045
     FM302245 08009KT P6SM -RA OVC025
     FM010100 08012KT 5SM -RA BR OVC015
     FM010500 06010KT P6SM VCSH OVC003
     FM011600 05009KT 6SM BR OVC007=

USA.gov is the U.S. government's official web portal to all federal, state and local government web resources and services.